Ary, Kentucky
Current Conditions -  °F | °C
As of 6:59 AM on Thursday 27 Nov 2014 (Local Time) from KJKL Reporting Station
Light Snow Light Snow  
Wind Chill: 26°   Ceiling: 500
Heat Index: 31°   Visibility: 2.5mi
Dew Point: 28°   Wind: 5mph
Humidity: 89%   Direction: NA
Pressure: 30.1"   Gusts: NA
Location:  37.37°N, 83.15°W
Report Text: KJKL 271159Z AUTO VRB04KT 2 1/2SM -SN BR BKN005 OVC027 M01/M02 A3010 RMK AO2 P0000 T10061022
Loading
Personal Weather Stations






























Interactive Weather Map New forecast layout! Learn more

10-Day Weather Forecast

Advertisements
Track Severe Weather on mobile